Canefield, Dominica

6:40 AM AST on September 05, 2015 (GMT -0400)
J73WA Weather Station | | Change Station
CLOSE
Current Station
Personal Weather Station
Location: Portsmouth, Dominica
Elevation: 20 ft
Nearby Weather Stations

Elev 20 ft 15.58 °N, 61.46 °W | Updated 28 seconds ago

Clear
Clear
77.8 °F
Feels Like 80 °F
N
0.0
Wind Variable Wind from East
Gusts 0.0 mph

Today
High -- | Low -- °F
--% Chance of Precip.
Yesterday
High -- | Low -- °F
Precip. -- in
5:53 AM 6:15 PM
Waning Gibbous, 50% visible
Pressure 29.98 in
Visibility 6.2 miles
Clouds
Heat Index 80 °F
Dew Point 78 °F
Humidity 100%
Rainfall 0.00 in
Snow Depth Not available.
UV Not available.
Pollen Not available.
Air Quality Not available.
Flu Activity Not available.
METAR TFFR 051030Z AUTO 00000KT 9999 NCD 25/24 Q1015
Pressure 29.98 in
Visibility 6.2 miles
Clouds
Heat Index 80 °F
Dew Point 78 °F
Humidity 100%
Rainfall 0.00 in
Snow Depth Not available.
UV Not available.
Pollen Not available.
Air Quality Not available.
Flu Activity Not available.
METAR TFFR 051030Z AUTO 00000KT 9999 NCD 25/24 Q1015

10-Day Weather Forecast

×

Almanac

Astronomy

Sep. 05, 2015 Rise Set
Actual Time
Civil Twilight
Nautical Twilight
Astronomical Twilight
Moon
Length of Visible Light
Length of Day
Tomorrow will be .
, % of the Moon is Illuminated

Today's Extremes

Country Highs Country Lows

Community

WunderPhotos

Upload Photos

1,852,439 photos uploaded!

WunderBlogs® & News

Nearby

Air Quality

  Air Quality AQ Index Pollutant
Not available.

Snow Depth

Station Depth Elevation

Earthquake Activity

City Distance Mag. Time & Date
Minimum magnitude displayed is 2.5.

Coastal Water Temperatures

Place Temperature

Stations

Nearby Weather Stations

Station Location Temp. Windchill Dew Point Humidity Wind Precip. Elev Updated Type